sensor_id;sensor_type;location;lat;lon;timestamp;pressure;altitude;pressure_sealevel;temperature;humidity
57827;BME280;43656;57.746;11.780;2023-02-18T00:01:17;99550.94;;;8.17;73.00
57827;BME280;43656;57.746;11.780;2023-02-18T00:03:43;99561.66;;;8.17;73.67
57827;BME280;43656;57.746;11.780;2023-02-18T00:06:14;99587.88;;;8.09;74.31
57827;BME280;43656;57.746;11.780;2023-02-18T00:08:41;99606.38;;;8.17;74.14
57827;BME280;43656;57.746;11.780;2023-02-18T00:11:07;99619.63;;;8.12;73.83
57827;BME280;43656;57.746;11.780;2023-02-18T00:13:33;99622.72;;;8.09;74.44
57827;BME280;43656;57.746;11.780;2023-02-18T00:16:02;99601.94;;;7.97;73.73
57827;BME280;43656;57.746;11.780;2023-02-18T00:18:28;99637.13;;;8.08;73.59
57827;BME280;43656;57.746;11.780;2023-02-18T00:20:54;99612.47;;;7.92;73.55
57827;BME280;43656;57.746;11.780;2023-02-18T00:23:19;99645.84;;;7.96;73.06
57827;BME280;43656;57.746;11.780;2023-02-18T00:25:44;99660.44;;;8.00;73.61
57827;BME280;43656;57.746;11.780;2023-02-18T00:28:10;99650.78;;;7.93;73.12
57827;BME280;43656;57.746;11.780;2023-02-18T00:30:42;99665.22;;;7.98;73.57
57827;BME280;43656;57.746;11.780;2023-02-18T00:33:08;99674.06;;;7.92;73.00
57827;BME280;43656;57.746;11.780;2023-02-18T00:35:33;99688.06;;;7.88;73.00
57827;BME280;43656;57.746;11.780;2023-02-18T00:37:59;99697.13;;;7.93;72.51
57827;BME280;43656;57.746;11.780;2023-02-18T00:40:24;99710.34;;;7.82;71.91
57827;BME280;43656;57.746;11.780;2023-02-18T00:42:50;99687.25;;;7.87;72.03
57827;BME280;43656;57.746;11.780;2023-02-18T00:45:15;99721.47;;;7.92;72.92
57827;BME280;43656;57.746;11.780;2023-02-18T00:47:41;99708.50;;;7.75;73.03
57827;BME280;43656;57.746;11.780;2023-02-18T00:50:07;99712.41;;;7.86;72.34
57827;BME280;43656;57.746;11.780;2023-02-18T00:52:33;99712.00;;;7.76;73.03
57827;BME280;43656;57.746;11.780;2023-02-18T00:54:58;99686.06;;;7.70;73.22
57827;BME280;43656;57.746;11.780;2023-02-18T00:57:24;99729.13;;;7.75;72.78
57827;BME280;43656;57.746;11.780;2023-02-18T00:59:49;99737.56;;;7.65;73.61
57827;BME280;43656;57.746;11.780;2023-02-18T01:02:15;99749.91;;;7.80;72.88
57827;BME280;43656;57.746;11.780;2023-02-18T01:04:40;99733.22;;;7.58;73.12
57827;BME280;43656;57.746;11.780;2023-02-18T01:07:05;99772.97;;;7.81;71.99
57827;BME280;43656;57.746;11.780;2023-02-18T01:09:31;99779.78;;;7.70;72.01
57827;BME280;43656;57.746;11.780;2023-02-18T01:11:57;99760.38;;;7.54;72.77
57827;BME280;43656;57.746;11.780;2023-02-18T01:14:23;99771.09;;;7.54;72.32
57827;BME280;43656;57.746;11.780;2023-02-18T01:16:48;99769.47;;;7.67;71.92
57827;BME280;43656;57.746;11.780;2023-02-18T01:19:14;99788.00;;;7.62;73.66
57827;BME280;43656;57.746;11.780;2023-02-18T01:21:39;99760.19;;;7.56;73.78
57827;BME280;43656;57.746;11.780;2023-02-18T01:24:05;99768.63;;;7.33;72.75
57827;BME280;43656;57.746;11.780;2023-02-18T01:26:30;99806.31;;;7.51;72.48
57827;BME280;43656;57.746;11.780;2023-02-18T01:28:56;99797.66;;;7.49;71.81
57827;BME280;43656;57.746;11.780;2023-02-18T01:31:21;99830.00;;;7.61;71.89
57827;BME280;43656;57.746;11.780;2023-02-18T01:33:46;99811.66;;;7.58;72.94
57827;BME280;43656;57.746;11.780;2023-02-18T01:36:12;99821.75;;;7.49;73.02
57827;BME280;43656;57.746;11.780;2023-02-18T01:38:38;99853.91;;;7.56;73.00
57827;BME280;43656;57.746;11.780;2023-02-18T01:41:04;99848.31;;;7.51;73.28
57827;BME280;43656;57.746;11.780;2023-02-18T01:43:30;99860.72;;;7.59;72.41
57827;BME280;43656;57.746;11.780;2023-02-18T01:48:34;99851.19;;;7.43;71.20
57827;BME280;43656;57.746;11.780;2023-02-18T01:53:36;99877.78;;;7.58;70.73
57827;BME280;43656;57.746;11.780;2023-02-18T01:56:04;99879.22;;;7.53;70.42
57827;BME280;43656;57.746;11.780;2023-02-18T01:58:32;99891.50;;;7.35;69.98
57827;BME280;43656;57.746;11.780;2023-02-18T02:00:57;99902.06;;;7.49;70.12
57827;BME280;43656;57.746;11.780;2023-02-18T02:03:23;99894.03;;;7.49;69.51
57827;BME280;43656;57.746;11.780;2023-02-18T02:05:48;99905.78;;;7.48;69.89
57827;BME280;43656;57.746;11.780;2023-02-18T02:08:14;99909.25;;;7.42;69.18
57827;BME280;43656;57.746;11.780;2023-02-18T02:10:58;99906.19;;;7.45;68.13
57827;BME280;43656;57.746;11.780;2023-02-18T02:13:51;99916.28;;;7.50;68.06
57827;BME280;43656;57.746;11.780;2023-02-18T02:25:07;99910.50;;;7.46;69.98
57827;BME280;43656;57.746;11.780;2023-02-18T02:33:45;99929.44;;;7.51;70.13
57827;BME280;43656;57.746;11.780;2023-02-18T02:38:54;99944.06;;;7.49;71.27
57827;BME280;43656;57.746;11.780;2023-02-18T02:41:30;99945.31;;;7.53;71.42
57827;BME280;43656;57.746;11.780;2023-02-18T02:44:20;99940.16;;;7.51;71.71
57827;BME280;43656;57.746;11.780;2023-02-18T02:46:50;99952.69;;;7.44;71.70
57827;BME280;43656;57.746;11.780;2023-02-18T02:50:07;99944.22;;;7.41;71.04
57827;BME280;43656;57.746;11.780;2023-02-18T02:52:22;99940.97;;;7.45;71.13
57827;BME280;43656;57.746;11.780;2023-02-18T02:54:48;99946.53;;;7.50;71.60
57827;BME280;43656;57.746;11.780;2023-02-18T02:59:45;99967.50;;;7.40;70.59
57827;BME280;43656;57.746;11.780;2023-02-18T03:06:10;99950.25;;;7.49;70.94
57827;BME280;43656;57.746;11.780;2023-02-18T03:11:11;99970.06;;;7.62;70.37
57827;BME280;43656;57.746;11.780;2023-02-18T03:18:54;99979.78;;;7.69;73.10
57827;BME280;43656;57.746;11.780;2023-02-18T03:24:12;99988.84;;;7.68;74.52
57827;BME280;43656;57.746;11.780;2023-02-18T03:26:43;99990.88;;;7.66;74.69
57827;BME280;43656;57.746;11.780;2023-02-18T03:29:11;99998.19;;;7.44;75.01
57827;BME280;43656;57.746;11.780;2023-02-18T03:31:40;99991.63;;;7.47;75.23
57827;BME280;43656;57.746;11.780;2023-02-18T03:34:22;100004.81;;;7.48;74.65
57827;BME280;43656;57.746;11.780;2023-02-18T03:36:49;100015.94;;;7.45;74.38
57827;BME280;43656;57.746;11.780;2023-02-18T03:39:19;100015.53;;;7.48;73.83
57827;BME280;43656;57.746;11.780;2023-02-18T03:41:47;100015.34;;;7.57;74.07
57827;BME280;43656;57.746;11.780;2023-02-18T03:44:13;100013.81;;;7.41;74.39
57827;BME280;43656;57.746;11.780;2023-02-18T03:46:41;100017.28;;;7.35;75.01
57827;BME280;43656;57.746;11.780;2023-02-18T03:49:14;100031.81;;;7.53;76.13
57827;BME280;43656;57.746;11.780;2023-02-18T03:51:40;100036.69;;;7.43;76.64
57827;BME280;43656;57.746;11.780;2023-02-18T03:54:06;100034.84;;;7.44;76.06
57827;BME280;43656;57.746;11.780;2023-02-18T03:56:32;100029.69;;;7.42;74.90
57827;BME280;43656;57.746;11.780;2023-02-18T03:58:58;100052.41;;;7.53;75.07
57827;BME280;43656;57.746;11.780;2023-02-18T04:01:23;100026.84;;;7.50;75.42
57827;BME280;43656;57.746;11.780;2023-02-18T04:03:49;100017.72;;;7.38;75.56
57827;BME280;43656;57.746;11.780;2023-02-18T04:06:14;100046.66;;;7.56;75.80
57827;BME280;43656;57.746;11.780;2023-02-18T04:08:40;100042.28;;;7.48;77.12
57827;BME280;43656;57.746;11.780;2023-02-18T04:11:05;100034.81;;;7.37;78.25
57827;BME280;43656;57.746;11.780;2023-02-18T04:13:31;100050.94;;;7.50;77.84
57827;BME280;43656;57.746;11.780;2023-02-18T04:15:56;100043.94;;;7.49;78.20
57827;BME280;43656;57.746;11.780;2023-02-18T04:18:22;100043.88;;;7.36;78.82
57827;BME280;43656;57.746;11.780;2023-02-18T04:20:47;100051.50;;;7.39;79.11
57827;BME280;43656;57.746;11.780;2023-02-18T04:23:15;100044.47;;;7.38;79.22
57827;BME280;43656;57.746;11.780;2023-02-18T04:25:40;100053.88;;;7.27;79.80
57827;BME280;43656;57.746;11.780;2023-02-18T04:28:06;100062.34;;;7.31;79.46
57827;BME280;43656;57.746;11.780;2023-02-18T04:30:31;100061.78;;;7.36;79.75
57827;BME280;43656;57.746;11.780;2023-02-18T04:32:57;100058.34;;;7.48;79.23
57827;BME280;43656;57.746;11.780;2023-02-18T04:35:22;100046.50;;;7.29;79.63
57827;BME280;43656;57.746;11.780;2023-02-18T04:37:48;100062.34;;;7.31;80.37
57827;BME280;43656;57.746;11.780;2023-02-18T04:40:14;100050.88;;;7.37;80.45
57827;BME280;43656;57.746;11.780;2023-02-18T04:42:40;100067.13;;;7.36;80.60
57827;BME280;43656;57.746;11.780;2023-02-18T04:45:05;100044.84;;;7.28;80.11
57827;BME280;43656;57.746;11.780;2023-02-18T04:47:31;100062.59;;;7.36;79.57
57827;BME280;43656;57.746;11.780;2023-02-18T04:49:56;100059.44;;;7.26;79.87
57827;BME280;43656;57.746;11.780;2023-02-18T04:52:22;100009.78;;;7.17;79.79
57827;BME280;43656;57.746;11.780;2023-02-18T04:54:47;100034.34;;;7.27;79.33
57827;BME280;43656;57.746;11.780;2023-02-18T04:57:13;100064.09;;;7.45;79.84
57827;BME280;43656;57.746;11.780;2023-02-18T04:59:40;100056.22;;;7.37;79.86
57827;BME280;43656;57.746;11.780;2023-02-18T05:02:05;100063.22;;;7.38;80.89
57827;BME280;43656;57.746;11.780;2023-02-18T05:04:31;100057.63;;;7.33;81.75
57827;BME280;43656;57.746;11.780;2023-02-18T05:06:56;100058.34;;;7.48;80.56
57827;BME280;43656;57.746;11.780;2023-02-18T05:09:22;100052.59;;;7.51;80.79
57827;BME280;43656;57.746;11.780;2023-02-18T05:11:48;100056.91;;;7.46;80.57
57827;BME280;43656;57.746;11.780;2023-02-18T05:14:14;100065.78;;;7.53;81.36
57827;BME280;43656;57.746;11.780;2023-02-18T05:16:39;100054.66;;;7.49;81.42
57827;BME280;43656;57.746;11.780;2023-02-18T05:19:05;100049.00;;;7.38;81.50
57827;BME280;43656;57.746;11.780;2023-02-18T05:21:30;100054.00;;;7.47;81.19
57827;BME280;43656;57.746;11.780;2023-02-18T05:23:56;100034.09;;;7.22;81.38
57827;BME280;43656;57.746;11.780;2023-02-18T05:26:21;100061.78;;;7.36;81.88
57827;BME280;43656;57.746;11.780;2023-02-18T05:28:47;100058.31;;;7.42;82.46
57827;BME280;43656;57.746;11.780;2023-02-18T05:31:12;100061.59;;;7.44;82.04
57827;BME280;43656;57.746;11.780;2023-02-18T05:33:37;100057.81;;;7.32;82.88
57827;BME280;43656;57.746;11.780;2023-02-18T05:36:03;100060.44;;;7.25;82.89
57827;BME280;43656;57.746;11.780;2023-02-18T05:38:29;100060.66;;;7.23;82.42
57827;BME280;43656;57.746;11.780;2023-02-18T05:40:54;100071.28;;;7.45;81.71
57827;BME280;43656;57.746;11.780;2023-02-18T05:43:20;100064.50;;;7.42;81.97
57827;BME280;43656;57.746;11.780;2023-02-18T05:45:45;100055.25;;;7.17;82.77
57827;BME280;43656;57.746;11.780;2023-02-18T05:48:10;100061.84;;;7.49;81.93
57827;BME280;43656;57.746;11.780;2023-02-18T05:50:36;100074.16;;;7.43;82.57
57827;BME280;43656;57.746;11.780;2023-02-18T05:53:01;100077.69;;;7.16;83.75
57827;BME280;43656;57.746;11.780;2023-02-18T05:55:27;100072.41;;;7.22;83.57
57827;BME280;43656;57.746;11.780;2023-02-18T05:57:52;100080.94;;;7.39;83.26
57827;BME280;43656;57.746;11.780;2023-02-18T06:00:18;100073.91;;;7.38;83.15
57827;BME280;43656;57.746;11.780;2023-02-18T06:02:44;100066.44;;;7.27;83.63
57827;BME280;43656;57.746;11.780;2023-02-18T06:05:10;100073.31;;;7.36;83.33
57827;BME280;43656;57.746;11.780;2023-02-18T06:07:35;100072.44;;;7.29;83.19
57827;BME280;43656;57.746;11.780;2023-02-18T06:10:02;100070.97;;;7.26;83.42
57827;BME280;43656;57.746;11.780;2023-02-18T06:12:27;100058.81;;;7.24;83.06
57827;BME280;43656;57.746;11.780;2023-02-18T06:14:53;100075.78;;;7.38;82.86
57827;BME280;43656;57.746;11.780;2023-02-18T06:17:19;100062.44;;;7.44;82.16
57827;BME280;43656;57.746;11.780;2023-02-18T06:19:47;100055.25;;;7.17;83.12
57827;BME280;43656;57.746;11.780;2023-02-18T06:22:13;100070.25;;;7.39;82.91
57827;BME280;43656;57.746;11.780;2023-02-18T06:24:39;100073.88;;;7.32;83.30
57827;BME280;43656;57.746;11.780;2023-02-18T06:27:04;100065.88;;;7.38;83.39
57827;BME280;43656;57.746;11.780;2023-02-18T06:29:30;100080.25;;;7.30;83.75
57827;BME280;43656;57.746;11.780;2023-02-18T06:31:59;100082.38;;;7.35;83.12
57827;BME280;43656;57.746;11.780;2023-02-18T06:34:25;100082.44;;;7.20;82.42
57827;BME280;43656;57.746;11.780;2023-02-18T06:36:51;100095.94;;;7.34;82.17
57827;BME280;43656;57.746;11.780;2023-02-18T06:39:17;100090.97;;;7.30;82.04
57827;BME280;43656;57.746;11.780;2023-02-18T06:41:42;100101.31;;;7.40;81.89
57827;BME280;43656;57.746;11.780;2023-02-18T06:44:08;100088.75;;;7.41;82.16
57827;BME280;43656;57.746;11.780;2023-02-18T06:46:34;100096.84;;;7.47;81.86
57827;BME280;43656;57.746;11.780;2023-02-18T06:48:59;100092.91;;;7.43;82.00
57827;BME280;43656;57.746;11.780;2023-02-18T06:51:24;100096.84;;;7.47;82.52
57827;BME280;43656;57.746;11.780;2023-02-18T06:53:50;100101.91;;;7.36;82.65
57827;BME280;43656;57.746;11.780;2023-02-18T06:56:15;100088.97;;;7.39;82.09
57827;BME280;43656;57.746;11.780;2023-02-18T06:58:41;100094.56;;;7.44;82.47
57827;BME280;43656;57.746;11.780;2023-02-18T07:01:06;100087.28;;;7.38;82.72
57827;BME280;43656;57.746;11.780;2023-02-18T07:03:32;100089.59;;;7.41;82.35
57827;BME280;43656;57.746;11.780;2023-02-18T07:05:57;100045.44;;;7.24;81.84
57827;BME280;43656;57.746;11.780;2023-02-18T07:08:23;100098.03;;;7.45;81.26
57827;BME280;43656;57.746;11.780;2023-02-18T07:10:48;100072.19;;;7.24;81.43
57827;BME280;43656;57.746;11.780;2023-02-18T07:13:14;100100.47;;;7.33;81.79
57827;BME280;43656;57.746;11.780;2023-02-18T07:15:40;100098.72;;;7.53;81.15
57827;BME280;43656;57.746;11.780;2023-02-18T07:18:06;100111.25;;;7.46;81.45
57827;BME280;43656;57.746;11.780;2023-02-18T07:20:31;100108.56;;;7.46;81.86
57827;BME280;43656;57.746;11.780;2023-02-18T07:22:57;100105.13;;;7.52;82.09
57827;BME280;43656;57.746;11.780;2023-02-18T07:25:23;100097.00;;;7.39;82.55
57827;BME280;43656;57.746;11.780;2023-02-18T07:27:49;100102.34;;;7.39;81.97
57827;BME280;43656;57.746;11.780;2023-02-18T07:30:14;100105.31;;;7.51;81.90
57827;BME280;43656;57.746;11.780;2023-02-18T07:32:40;100109.44;;;7.53;81.65
57827;BME280;43656;57.746;11.780;2023-02-18T07:35:06;100113.81;;;7.61;80.97
57827;BME280;43656;57.746;11.780;2023-02-18T07:37:32;100086.72;;;7.43;81.36
57827;BME280;43656;57.746;11.780;2023-02-18T07:39:57;100085.09;;;7.42;81.06
57827;BME280;43656;57.746;11.780;2023-02-18T07:42:23;100107.16;;;7.50;81.62
57827;BME280;43656;57.746;11.780;2023-02-18T07:44:48;100114.31;;;7.43;81.72
57827;BME280;43656;57.746;11.780;2023-02-18T07:47:15;100108.97;;;7.43;82.39
57827;BME280;43656;57.746;11.780;2023-02-18T07:49:44;100113.94;;;7.46;82.16
57827;BME280;43656;57.746;11.780;2023-02-18T07:52:09;100118.69;;;7.51;82.28
57827;BME280;43656;57.746;11.780;2023-02-18T07:54:35;100115.88;;;7.59;81.50
57827;BME280;43656;57.746;11.780;2023-02-18T07:57:00;100137.13;;;7.67;81.99
57827;BME280;43656;57.746;11.780;2023-02-18T07:59:26;100127.88;;;7.70;81.30
57827;BME280;43656;57.746;11.780;2023-02-18T08:01:51;100130.34;;;7.71;81.95
57827;BME280;43656;57.746;11.780;2023-02-18T08:04:17;100127.53;;;7.80;82.03
57827;BME280;43656;57.746;11.780;2023-02-18T08:06:44;100138.34;;;7.65;82.11
57827;BME280;43656;57.746;11.780;2023-02-18T08:09:11;100135.91;;;7.70;81.18
57827;BME280;43656;57.746;11.780;2023-02-18T08:11:36;100133.84;;;7.65;81.46
57827;BME280;43656;57.746;11.780;2023-02-18T08:14:02;100145.63;;;7.77;81.03
57827;BME280;43656;57.746;11.780;2023-02-18T08:16:27;100138.19;;;7.73;80.92
57827;BME280;43656;57.746;11.780;2023-02-18T08:18:53;100119.31;;;7.53;81.24
57827;BME280;43656;57.746;11.780;2023-02-18T08:21:21;100152.69;;;7.85;80.80
57827;BME280;43656;57.746;11.780;2023-02-18T08:23:47;100152.88;;;7.84;81.21
57827;BME280;43656;57.746;11.780;2023-02-18T08:26:13;100150.63;;;7.87;80.88
57827;BME280;43656;57.746;11.780;2023-02-18T08:28:39;100150.06;;;7.64;81.93
57827;BME280;43656;57.746;11.780;2023-02-18T08:31:04;100148.44;;;7.63;81.68
57827;BME280;43656;57.746;11.780;2023-02-18T08:33:30;100144.75;;;7.70;81.50
57827;BME280;43656;57.746;11.780;2023-02-18T08:35:56;100153.47;;;7.79;80.85
57827;BME280;43656;57.746;11.780;2023-02-18T08:38:23;100134.78;;;7.58;82.03
57827;BME280;43656;57.746;11.780;2023-02-18T08:40:49;100147.09;;;7.80;81.28
57827;BME280;43656;57.746;11.780;2023-02-18T08:43:15;100145.91;;;7.89;81.30
57827;BME280;43656;57.746;11.780;2023-02-18T08:45:42;100152.53;;;7.93;81.64
57827;BME280;43656;57.746;11.780;2023-02-18T08:48:09;100154.13;;;7.88;81.43
57827;BME280;43656;57.746;11.780;2023-02-18T08:50:35;100142.84;;;7.92;81.16
57827;BME280;43656;57.746;11.780;2023-02-18T08:53:01;100142.28;;;8.04;80.56
57827;BME280;43656;57.746;11.780;2023-02-18T08:55:32;100151.50;;;7.94;81.37
57827;BME280;43656;57.746;11.780;2023-02-18T08:57:58;100162.75;;;8.18;80.70
57827;BME280;43656;57.746;11.780;2023-02-18T09:00:24;100158.84;;;8.20;80.46
57827;BME280;43656;57.746;11.780;2023-02-18T09:02:49;100156.56;;;8.17;80.72
57827;BME280;43656;57.746;11.780;2023-02-18T09:05:15;100166.69;;;8.22;80.97
57827;BME280;43656;57.746;11.780;2023-02-18T09:07:41;100173.09;;;8.28;80.28
57827;BME280;43656;57.746;11.780;2023-02-18T09:10:07;100172.09;;;8.35;80.78
57827;BME280;43656;57.746;11.780;2023-02-18T09:12:32;100173.97;;;8.35;80.23
57827;BME280;43656;57.746;11.780;2023-02-18T09:14:58;100152.66;;;8.20;80.17
57827;BME280;43656;57.746;11.780;2023-02-18T09:17:25;100187.22;;;8.43;79.78
57827;BME280;43656;57.746;11.780;2023-02-18T09:19:50;100180.75;;;8.37;80.06
57827;BME280;43656;57.746;11.780;2023-02-18T09:22:16;100183.31;;;8.45;79.01
57827;BME280;43656;57.746;11.780;2023-02-18T09:24:41;100194.88;;;8.53;78.95
57827;BME280;43656;57.746;11.780;2023-02-18T09:27:07;100190.13;;;8.41;78.82
57827;BME280;43656;57.746;11.780;2023-02-18T09:29:33;100194.75;;;8.26;79.42
57827;BME280;43656;57.746;11.780;2023-02-18T09:32:02;100193.94;;;8.32;79.38
57827;BME280;43656;57.746;11.780;2023-02-18T09:34:28;100190.50;;;8.38;79.23
57827;BME280;43656;57.746;11.780;2023-02-18T09:36:53;100198.50;;;8.32;80.27
57827;BME280;43656;57.746;11.780;2023-02-18T09:39:19;100186.69;;;8.26;80.09
57827;BME280;43656;57.746;11.780;2023-02-18T09:44:23;100200.91;;;8.20;80.55
57827;BME280;43656;57.746;11.780;2023-02-18T09:49:28;100210.25;;;8.37;79.95
57827;BME280;43656;57.746;11.780;2023-02-18T09:51:55;100206.09;;;8.28;80.31
57827;BME280;43656;57.746;11.780;2023-02-18T09:54:22;100199.50;;;8.31;80.61
57827;BME280;43656;57.746;11.780;2023-02-18T09:56:47;100192.22;;;8.11;80.37
57827;BME280;43656;57.746;11.780;2023-02-18T09:59:18;100218.03;;;8.26;81.16
57827;BME280;43656;57.746;11.780;2023-02-18T10:01:46;100218.13;;;8.04;81.90
57827;BME280;43656;57.746;11.780;2023-02-18T10:04:18;100217.38;;;8.17;81.02
57827;BME280;43656;57.746;11.780;2023-02-18T10:06:50;100216.06;;;8.06;81.53
57827;BME280;43656;57.746;11.780;2023-02-18T10:09:24;100221.59;;;7.98;81.77
57827;BME280;43656;57.746;11.780;2023-02-18T10:12:00;100206.75;;;7.95;82.12
57827;BME280;43656;57.746;11.780;2023-02-18T10:14:28;100217.69;;;8.00;82.51
57827;BME280;43656;57.746;11.780;2023-02-18T10:16:55;100226.59;;;8.08;81.92
57827;BME280;43656;57.746;11.780;2023-02-18T10:19:31;100229.75;;;8.18;81.09
57827;BME280;43656;57.746;11.780;2023-02-18T10:21:58;100214.94;;;8.22;81.20
57827;BME280;43656;57.746;11.780;2023-02-18T10:24:32;100225.38;;;8.10;81.81
57827;BME280;43656;57.746;11.780;2023-02-18T10:26:58;100224.78;;;8.15;82.16
57827;BME280;43656;57.746;11.780;2023-02-18T10:29:26;100222.03;;;8.02;82.49
57827;BME280;43656;57.746;11.780;2023-02-18T10:48:32;100222.19;;;7.93;85.02
57827;BME280;43656;57.746;11.780;2023-02-18T10:51:08;100227.56;;;8.00;85.12
57827;BME280;43656;57.746;11.780;2023-02-18T10:53:39;100225.75;;;8.07;84.89
57827;BME280;43656;57.746;11.780;2023-02-18T10:56:07;100224.72;;;8.02;84.66
57827;BME280;43656;57.746;11.780;2023-02-18T10:58:42;100229.81;;;8.24;83.77
57827;BME280;43656;57.746;11.780;2023-02-18T11:01:19;100236.19;;;8.30;83.15
57827;BME280;43656;57.746;11.780;2023-02-18T11:03:47;100227.09;;;8.18;83.55
57827;BME280;43656;57.746;11.780;2023-02-18T11:06:39;100232.09;;;8.34;83.20
57827;BME280;43656;57.746;11.780;2023-02-18T11:09:06;100195.44;;;8.00;83.54
57827;BME280;43656;57.746;11.780;2023-02-18T11:11:38;100238.81;;;8.17;82.50
57827;BME280;43656;57.746;11.780;2023-02-18T11:14:06;100233.09;;;8.27;81.96
57827;BME280;43656;57.746;11.780;2023-02-18T11:16:37;100231.28;;;8.34;82.73
57827;BME280;43656;57.746;11.780;2023-02-18T11:19:03;100233.44;;;8.45;81.49
57827;BME280;43656;57.746;11.780;2023-02-18T11:21:33;100241.06;;;8.41;82.15
57827;BME280;43656;57.746;11.780;2023-02-18T11:24:07;100236.31;;;8.50;81.99
57827;BME280;43656;57.746;11.780;2023-02-18T11:26:34;100228.66;;;8.40;82.58
57827;BME280;43656;57.746;11.780;2023-02-18T11:29:05;100222.19;;;8.28;82.68
57827;BME280;43656;57.746;11.780;2023-02-18T11:31:46;100233.56;;;8.37;82.14
57827;BME280;43656;57.746;11.780;2023-02-18T11:34:28;100195.09;;;8.16;81.54
57827;BME280;43656;57.746;11.780;2023-02-18T11:37:07;100222.50;;;8.46;79.89
57827;BME280;43656;57.746;11.780;2023-02-18T11:39:34;100225.38;;;8.45;79.92
57827;BME280;43656;57.746;11.780;2023-02-18T11:42:03;100218.06;;;8.32;79.46
57827;BME280;43656;57.746;11.780;2023-02-18T11:44:35;100190.53;;;8.10;79.56
57827;BME280;43656;57.746;11.780;2023-02-18T11:47:02;100222.06;;;8.43;79.63
57827;BME280;43656;57.746;11.780;2023-02-18T11:49:30;100218.34;;;8.44;79.59
57827;BME280;43656;57.746;11.780;2023-02-18T11:52:15;100209.56;;;8.22;80.27
57827;BME280;43656;57.746;11.780;2023-02-18T11:54:41;100228.91;;;8.17;80.92
57827;BME280;43656;57.746;11.780;2023-02-18T11:57:11;100215.66;;;8.03;81.96
57827;BME280;43656;57.746;11.780;2023-02-18T11:59:39;100219.50;;;7.93;83.35
57827;BME280;43656;57.746;11.780;2023-02-18T12:04:45;100219.78;;;7.77;83.02
57827;BME280;43656;57.746;11.780;2023-02-18T12:10:12;100226.09;;;7.63;80.59
57827;BME280;43656;57.746;11.780;2023-02-18T12:12:47;100218.28;;;7.68;80.05
57827;BME280;43656;57.746;11.780;2023-02-18T12:15:23;100194.06;;;7.54;78.48
57827;BME280;43656;57.746;11.780;2023-02-18T12:18:14;100200.13;;;7.63;77.22
57827;BME280;43656;57.746;11.780;2023-02-18T12:20:54;100225.31;;;7.69;78.05
57827;BME280;43656;57.746;11.780;2023-02-18T12:26:28;100223.25;;;7.71;78.92
57827;BME280;43656;57.746;11.780;2023-02-18T12:48:58;100223.69;;;7.46;82.61
57827;BME280;43656;57.746;11.780;2023-02-18T12:51:47;100232.91;;;7.44;83.20
57827;BME280;43656;57.746;11.780;2023-02-18T12:55:35;100220.88;;;7.33;80.69
57827;BME280;43656;57.746;11.780;2023-02-18T13:00:56;100217.72;;;7.51;80.00
57827;BME280;43656;57.746;11.780;2023-02-18T13:14:30;100225.53;;;7.46;75.83
57827;BME280;43656;57.746;11.780;2023-02-18T13:16:58;100241.50;;;7.61;76.12
57827;BME280;43656;57.746;11.780;2023-02-18T13:19:44;100230.94;;;7.52;76.13
57827;BME280;43656;57.746;11.780;2023-02-18T13:22:13;100229.31;;;7.58;76.07
57827;BME280;43656;57.746;11.780;2023-02-18T13:24:44;100233.63;;;7.52;75.70
57827;BME280;43656;57.746;11.780;2023-02-18T13:35:18;100209.38;;;7.33;75.40
57827;BME280;43656;57.746;11.780;2023-02-18T13:40:40;100257.00;;;7.44;75.58
57827;BME280;43656;57.746;11.780;2023-02-18T13:43:38;100247.78;;;7.46;75.62
57827;BME280;43656;57.746;11.780;2023-02-18T13:46:17;100242.81;;;7.43;76.22
57827;BME280;43656;57.746;11.780;2023-02-18T13:49:02;100217.56;;;7.31;75.55
57827;BME280;43656;57.746;11.780;2023-02-18T13:56:50;100254.72;;;7.41;76.47
57827;BME280;43656;57.746;11.780;2023-02-18T13:59:23;100260.28;;;7.39;76.33
57827;BME280;43656;57.746;11.780;2023-02-18T14:01:52;100248.53;;;7.40;75.86
57827;BME280;43656;57.746;11.780;2023-02-18T14:07:25;100254.66;;;7.34;75.59
57827;BME280;43656;57.746;11.780;2023-02-18T14:09:56;100264.22;;;7.43;75.75
57827;BME280;43656;57.746;11.780;2023-02-18T14:22:57;100272.78;;;7.32;75.35
57827;BME280;43656;57.746;11.780;2023-02-18T14:25:36;100270.47;;;7.29;75.29
57827;BME280;43656;57.746;11.780;2023-02-18T14:31:00;100279.13;;;7.31;76.47
57827;BME280;43656;57.746;11.780;2023-02-18T14:33:29;100250.78;;;7.15;76.03
57827;BME280;43656;57.746;11.780;2023-02-18T14:36:28;100275.00;;;7.28;76.00
57827;BME280;43656;57.746;11.780;2023-02-18T14:44:27;100287.38;;;7.15;74.81
57827;BME280;43656;57.746;11.780;2023-02-18T14:50:14;100294.66;;;7.21;73.71
57827;BME280;43656;57.746;11.780;2023-02-18T14:52:52;100308.88;;;7.21;74.74
57827;BME280;43656;57.746;11.780;2023-02-18T14:55:32;100303.72;;;7.20;76.27
57827;BME280;43656;57.746;11.780;2023-02-18T14:58:05;100297.72;;;7.18;75.86
57827;BME280;43656;57.746;11.780;2023-02-18T15:00:34;100285.00;;;7.05;76.53
57827;BME280;43656;57.746;11.780;2023-02-18T15:03:03;100298.59;;;7.03;77.11
57827;BME280;43656;57.746;11.780;2023-02-18T15:05:30;100297.94;;;7.01;77.08
57827;BME280;43656;57.746;11.780;2023-02-18T15:08:13;100295.03;;;6.96;77.35
57827;BME280;43656;57.746;11.780;2023-02-18T15:15:40;100312.41;;;7.07;74.24
57827;BME280;43656;57.746;11.780;2023-02-18T15:18:19;100308.47;;;7.03;74.07
57827;BME280;43656;57.746;11.780;2023-02-18T15:20:46;100316.38;;;7.11;74.17
57827;BME280;43656;57.746;11.780;2023-02-18T15:23:15;100315.63;;;7.17;72.75
57827;BME280;43656;57.746;11.780;2023-02-18T15:25:46;100322.06;;;7.23;73.31
57827;BME280;43656;57.746;11.780;2023-02-18T15:28:28;100326.16;;;7.19;72.67
57827;BME280;43656;57.746;11.780;2023-02-18T15:30:58;100318.38;;;7.24;72.50